Time;durP1;ratioP1;P1;durP2;ratioP2;P2;SDS_P1;SDS_P2;PMS_P1;PMS_P2;Temp;Humidity;BMP_temperature;BMP_pressure;BME280_temperature;BME280_humidity;BME280_pressure;Samples;Min_cycle;Max_cycle;Signal;HPM_P1;HPM_P2
2023/10/17 00:01:13;;;;;;;3.90;3.60;;;;;;;;;;5100902;28;20100;-63
2023/10/17 00:03:45;;;;;;;3.67;3.47;;;;;;;;;;5104189;27;20056;-65
2023/10/17 00:06:16;;;;;;;4.18;3.88;;;;;;;;;;5096076;28;20036;-63
2023/10/17 00:08:50;;;;;;;3.88;3.58;;;;;;;;;;5102278;27;20043;-65
2023/10/17 00:11:21;;;;;;;3.50;3.30;;;;;;;;;;5101994;27;20131;-64
2023/10/17 00:14:07;;;;;;;3.75;3.55;;;;;;;;;;5098211;28;20122;-63
2023/10/17 00:16:37;;;;;;;3.55;3.35;;;;;;;;;;5100278;27;20175;-63
2023/10/17 00:19:09;;;;;;;3.75;3.45;;;;;;;;;;5099402;27;20044;-63
2023/10/17 00:21:37;;;;;;;3.58;3.38;;;;;;;;;;5100403;28;20632;-62
2023/10/17 00:24:09;;;;;;;4.30;3.95;;;;;;;;;;5101039;28;20040;-63
2023/10/17 00:26:39;;;;;;;3.72;3.45;;;;;;;;;;5098929;28;20051;-62
2023/10/17 00:29:09;;;;;;;4.30;4.00;;;;;;;;;;5100843;28;20096;-62
2023/10/17 00:31:38;;;;;;;4.00;3.70;;;;;;;;;;5098176;28;21253;-62
2023/10/17 00:34:15;;;;;;;3.75;3.45;;;;;;;;;;5102698;27;20147;-63
2023/10/17 00:36:50;;;;;;;3.88;3.40;;;;;;;;;;5102512;28;20071;-64
2023/10/17 00:39:29;;;;;;;3.85;3.55;;;;;;;;;;5097498;27;20048;-63
2023/10/17 00:42:27;;;;;;;3.72;3.42;;;;;;;;;;5096968;28;20044;-63
2023/10/17 00:44:58;;;;;;;3.90;3.60;;;;;;;;;;5099482;27;20052;-63
2023/10/17 00:47:27;;;;;;;4.10;3.80;;;;;;;;;;5096390;27;20086;-63
2023/10/17 00:49:56;;;;;;;4.05;3.75;;;;;;;;;;5099853;27;20046;-63
2023/10/17 00:52:26;;;;;;;5.30;3.95;;;;;;;;;;5094988;28;20117;-61
2023/10/17 00:54:55;;;;;;;4.10;3.80;;;;;;;;;;5099096;28;20072;-62
2023/10/17 00:57:26;;;;;;;3.97;3.67;;;;;;;;;;5101023;27;20737;-63
2023/10/17 00:59:55;;;;;;;4.28;3.95;;;;;;;;;;5099347;28;20079;-63
2023/10/17 01:02:29;;;;;;;3.88;3.58;;;;;;;;;;5102760;27;20396;-62
2023/10/17 01:04:59;;;;;;;4.45;4.15;;;;;;;;;;5098188;27;20477;-63
2023/10/17 01:07:30;;;;;;;3.63;3.35;;;;;;;;;;5093375;27;20471;-64
2023/10/17 01:10:05;;;;;;;3.53;3.28;;;;;;;;;;5100809;27;20485;-64
2023/10/17 01:12:33;;;;;;;3.65;3.35;;;;;;;;;;5097420;27;20046;-64
2023/10/17 01:15:02;;;;;;;3.45;3.25;;;;;;;;;;5103192;27;20068;-63
2023/10/17 01:17:35;;;;;;;4.20;3.80;;;;;;;;;;5096400;27;20052;-64
2023/10/17 01:20:08;;;;;;;3.55;3.35;;;;;;;;;;5097717;27;20044;-62
2023/10/17 01:22:41;;;;;;;4.28;3.88;;;;;;;;;;5095452;28;20098;-64
2023/10/17 01:25:21;;;;;;;4.10;3.72;;;;;;;;;;5102517;27;20067;-64
2023/10/17 01:27:51;;;;;;;4.13;3.83;;;;;;;;;;5093750;28;20064;-64
2023/10/17 01:30:19;;;;;;;4.05;3.75;;;;;;;;;;5102613;27;20339;-64
2023/10/17 01:32:50;;;;;;;3.85;3.65;;;;;;;;;;5097654;27;20119;-63
2023/10/17 01:35:20;;;;;;;4.18;3.88;;;;;;;;;;5100356;28;20137;-64
2023/10/17 01:37:48;;;;;;;3.83;3.53;;;;;;;;;;5093082;27;20054;-64
2023/10/17 01:40:22;;;;;;;4.40;4.00;;;;;;;;;;5093616;28;20113;-64
2023/10/17 01:42:51;;;;;;;;;;;;;;;;;;5097859;28;20445;-63
2023/10/17 01:45:23;;;;;;;3.85;3.55;;;;;;;;;;5098300;28;19924;-65
2023/10/17 01:47:52;;;;;;;3.80;3.50;;;;;;;;;;5093583;27;20128;-65
2023/10/17 01:50:21;;;;;;;3.90;3.63;;;;;;;;;;5100622;27;20302;-64
2023/10/17 01:52:52;;;;;;;4.20;3.85;;;;;;;;;;5097979;27;20055;-64
2023/10/17 01:55:25;;;;;;;4.10;3.80;;;;;;;;;;5095363;27;20089;-64
2023/10/17 01:57:57;;;;;;;3.78;3.47;;;;;;;;;;5096402;28;20565;-64
2023/10/17 02:00:27;;;;;;;4.22;3.92;;;;;;;;;;5097160;27;20048;-64
2023/10/17 02:02:56;;;;;;;4.75;4.25;;;;;;;;;;5097698;27;20127;-64
2023/10/17 02:05:24;;;;;;;4.20;3.90;;;;;;;;;;5096174;28;20093;-63
2023/10/17 02:07:54;;;;;;;3.78;3.53;;;;;;;;;;5091020;28;20152;-63
2023/10/17 02:10:25;;;;;;;4.03;3.72;;;;;;;;;;5101102;27;20046;-64
2023/10/17 02:12:54;;;;;;;4.05;3.75;;;;;;;;;;5095039;28;20370;-64
2023/10/17 02:15:23;;;;;;;3.97;3.67;;;;;;;;;;5096143;28;20100;-64
2023/10/17 02:17:53;;;;;;;4.63;4.10;;;;;;;;;;5095009;28;20039;-64
2023/10/17 02:20:29;;;;;;;4.45;4.15;;;;;;;;;;5096655;27;20529;-64
2023/10/17 02:22:59;;;;;;;4.50;4.10;;;;;;;;;;5095129;28;20393;-64
2023/10/17 02:25:32;;;;;;;4.22;3.75;;;;;;;;;;5097309;28;20043;-64
2023/10/17 02:28:01;;;;;;;4.05;3.75;;;;;;;;;;5095333;28;20500;-64
2023/10/17 02:30:29;;;;;;;4.18;3.88;;;;;;;;;;5097559;28;20058;-65
2023/10/17 02:33:00;;;;;;;4.00;3.70;;;;;;;;;;5095253;27;20071;-63
2023/10/17 02:35:36;;;;;;;4.35;4.03;;;;;;;;;;5097318;28;20051;-64
2023/10/17 02:38:05;;;;;;;4.03;3.70;;;;;;;;;;5093940;27;20052;-65
2023/10/17 02:40:38;;;;;;;4.20;3.80;;;;;;;;;;5098859;28;20048;-64
2023/10/17 02:43:12;;;;;;;4.10;3.80;;;;;;;;;;5096470;28;20044;-63
2023/10/17 02:45:44;;;;;;;4.95;4.55;;;;;;;;;;5095428;28;20139;-64
2023/10/17 02:48:23;;;;;;;5.93;4.07;;;;;;;;;;5095197;27;20046;-64
2023/10/17 02:50:58;;;;;;;4.10;3.70;;;;;;;;;;5098994;28;20134;-64
2023/10/17 02:53:29;;;;;;;3.90;3.60;;;;;;;;;;5096934;28;20070;-64
2023/10/17 02:56:07;;;;;;;5.20;4.32;;;;;;;;;;5098164;28;20052;-63
2023/10/17 02:58:35;;;;;;;3.65;3.38;;;;;;;;;;5097016;28;20044;-64
2023/10/17 03:01:04;;;;;;;4.28;3.88;;;;;;;;;;5102484;28;20052;-62
2023/10/17 03:03:35;;;;;;;4.03;3.72;;;;;;;;;;5094999;28;20127;-64
2023/10/17 03:06:05;;;;;;;4.38;4.07;;;;;;;;;;5095690;28;20043;-63
2023/10/17 03:08:36;;;;;;;4.15;3.85;;;;;;;;;;5095247;27;20054;-63
2023/10/17 03:11:08;;;;;;;4.00;3.75;;;;;;;;;;5101101;28;20511;-63
2023/10/17 03:13:41;;;;;;;3.60;3.35;;;;;;;;;;5098708;27;20066;-65
2023/10/17 03:16:25;;;;;;;4.10;3.80;;;;;;;;;;5094990;28;20068;-64
2023/10/17 03:18:52;;;;;;;4.90;4.50;;;;;;;;;;5097236;28;20035;-63
2023/10/17 03:21:30;;;;;;;3.95;3.65;;;;;;;;;;5094418;28;20051;-64
2023/10/17 03:24:00;;;;;;;3.67;3.47;;;;;;;;;;5092001;28;20506;-63
2023/10/17 03:26:39;;;;;;;3.78;3.47;;;;;;;;;;5092855;28;20048;-65
2023/10/17 03:29:14;;;;;;;4.10;3.80;;;;;;;;;;5096796;28;20063;-65
2023/10/17 03:31:42;;;;;;;4.40;4.00;;;;;;;;;;5095064;28;20563;-64
2023/10/17 03:34:13;;;;;;;3.42;3.22;;;;;;;;;;5097934;28;20135;-63
2023/10/17 03:36:42;;;;;;;4.20;3.90;;;;;;;;;;5098399;28;20148;-64
2023/10/17 03:41:57;;;;;;;;;;;;;;;;;;5094792;28;20056;-64
2023/10/17 03:44:30;;;;;;;4.07;3.78;;;;;;;;;;5096859;28;20015;-64
2023/10/17 03:47:03;;;;;;;4.60;4.30;;;;;;;;;;5095955;28;20636;-64
2023/10/17 03:49:37;;;;;;;4.40;4.10;;;;;;;;;;5098956;28;20047;-64
2023/10/17 03:52:06;;;;;;;3.97;3.70;;;;;;;;;;5097814;28;20100;-64
2023/10/17 03:54:38;;;;;;;3.75;3.45;;;;;;;;;;5098942;28;20507;-63
2023/10/17 03:57:15;;;;;;;4.40;4.00;;;;;;;;;;5093275;28;20396;-64
2023/10/17 03:59:51;;;;;;;4.18;3.78;;;;;;;;;;5097520;28;20048;-62
2023/10/17 04:02:22;;;;;;;4.20;3.88;;;;;;;;;;5095414;28;20087;-63
2023/10/17 04:04:53;;;;;;;4.00;3.70;;;;;;;;;;5094425;28;20687;-63
2023/10/17 04:07:23;;;;;;;4.22;3.92;;;;;;;;;;5096647;28;20532;-64
2023/10/17 04:10:17;;;;;;;4.15;3.85;;;;;;;;;;5097390;28;20093;-65
2023/10/17 04:12:49;;;;;;;4.03;3.72;;;;;;;;;;5102660;28;20073;-64
2023/10/17 04:15:19;;;;;;;4.35;4.05;;;;;;;;;;5096327;28;20044;-65
2023/10/17 04:17:48;;;;;;;4.38;3.60;;;;;;;;;;5095562;28;20076;-63
2023/10/17 04:20:17;;;;;;;4.68;4.38;;;;;;;;;;5096602;28;20467;-64
2023/10/17 04:22:46;;;;;;;4.43;4.03;;;;;;;;;;5094049;28;20066;-62
2023/10/17 04:25:32;;;;;;;4.00;3.70;;;;;;;;;;5095235;27;20207;-62
2023/10/17 04:28:01;;;;;;;4.32;4.03;;;;;;;;;;5090689;28;20606;-62
2023/10/17 04:30:35;;;;;;;4.53;4.22;;;;;;;;;;5096490;28;20395;-62
2023/10/17 04:33:12;;;;;;;4.03;3.77;;;;;;;;;;5098569;28;20044;-62
2023/10/17 04:35:44;;;;;;;3.83;3.63;;;;;;;;;;5100775;28;20293;-61
2023/10/17 04:38:19;;;;;;;3.95;3.75;;;;;;;;;;5096845;27;20040;-65
2023/10/17 04:40:54;;;;;;;3.70;3.40;;;;;;;;;;5100239;27;20043;-63
2023/10/17 04:46:29;;;;;;;4.22;3.85;;;;;;;;;;5056562;28;20450;-62
2023/10/17 04:49:06;;;;;;;5.38;4.38;;;;;;;;;;5055479;28;20059;-64
2023/10/17 04:51:42;;;;;;;4.68;4.30;;;;;;;;;;5076428;27;20036;-63
2023/10/17 04:54:22;;;;;;;4.50;4.10;;;;;;;;;;5101442;27;20116;-64
2023/10/17 04:56:55;;;;;;;4.32;4.00;;;;;;;;;;5100349;27;20044;-64
2023/10/17 04:59:41;;;;;;;4.13;3.83;;;;;;;;;;5100102;27;20071;-64
2023/10/17 05:02:28;;;;;;;4.45;4.15;;;;;;;;;;5096906;27;20721;-64
2023/10/17 05:07:58;;;;;;;4.50;4.20;;;;;;;;;;5100138;27;20036;-64
2023/10/17 06:17:23;;;;;;;6.55;5.68;;;;;;;;;;5096104;27;20473;-62
2023/10/17 06:19:52;;;;;;;6.15;5.55;;;;;;;;;;5100074;28;20079;-64
2023/10/17 06:28:26;;;;;;;6.38;5.65;;;;;;;;;;5057852;28;20053;-64
2023/10/17 06:33:42;;;;;;;7.25;5.90;;;;;;;;;;5084027;28;20043;-65
2023/10/17 06:36:15;;;;;;;6.65;5.97;;;;;;;;;;5097850;28;20051;-65
2023/10/17 06:38:47;;;;;;;6.90;6.20;;;;;;;;;;5099215;28;20410;-65
2023/10/17 06:41:27;;;;;;;7.15;6.45;;;;;;;;;;5095084;28;20074;-63
2023/10/17 06:43:58;;;;;;;6.53;5.45;;;;;;;;;;5095603;28;20108;-65
2023/10/17 06:46:30;;;;;;;6.78;6.10;;;;;;;;;;5097475;27;20319;-63
2023/10/17 06:49:04;;;;;;;7.28;6.35;;;;;;;;;;5100331;28;20046;-66
2023/10/17 06:51:36;;;;;;;6.80;6.10;;;;;;;;;;5097828;28;20040;-63
2023/10/17 06:54:12;;;;;;;7.90;6.00;;;;;;;;;;5097679;28;20055;-65
2023/10/17 06:56:44;;;;;;;10.18;6.38;;;;;;;;;;5093492;28;20094;-65
2023/10/17 06:59:24;;;;;;;7.72;6.38;;;;;;;;;;5097286;28;20047;-64
2023/10/17 07:02:10;;;;;;;8.38;6.68;;;;;;;;;;5098060;28;20587;-65
2023/10/17 07:04:40;;;;;;;7.40;6.20;;;;;;;;;;5098547;28;20050;-64
2023/10/17 07:07:09;;;;;;;6.45;5.85;;;;;;;;;;5092077;27;20052;-63
2023/10/17 07:09:39;;;;;;;9.93;6.32;;;;;;;;;;5097933;28;20078;-65
2023/10/17 07:12:14;;;;;;;7.55;5.90;;;;;;;;;;5095344;28;21509;-64
2023/10/17 07:14:48;;;;;;;9.13;6.20;;;;;;;;;;5101309;28;20123;-64
2023/10/17 07:17:31;;;;;;;7.03;5.88;;;;;;;;;;5096933;28;20508;-65
2023/10/17 07:20:00;;;;;;;6.88;6.22;;;;;;;;;;5098243;28;20063;-64
2023/10/17 07:22:36;;;;;;;6.70;6.03;;;;;;;;;;5096325;28;20039;-64
2023/10/17 07:25:16;;;;;;;6.70;6.00;;;;;;;;;;5095237;28;20570;-64
2023/10/17 07:27:46;;;;;;;6.70;5.65;;;;;;;;;;5094311;28;20054;-64
2023/10/17 07:30:24;;;;;;;6.45;5.78;;;;;;;;;;5096343;28;20404;-64
2023/10/17 07:32:56;;;;;;;7.72;6.25;;;;;;;;;;5097667;28;20456;-64
2023/10/17 07:35:25;;;;;;;6.78;5.75;;;;;;;;;;5099702;28;20040;-64
2023/10/17 07:38:00;;;;;;;6.78;6.07;;;;;;;;;;5094332;28;20047;-62
2023/10/17 07:40:54;;;;;;;7.00;6.30;;;;;;;;;;5101071;28;20051;-64
2023/10/17 07:43:23;;;;;;;5.97;5.38;;;;;;;;;;5100210;28;20298;-64
2023/10/17 07:46:00;;;;;;;6.00;5.40;;;;;;;;;;5099807;28;20048;-64
2023/10/17 07:48:28;;;;;;;6.57;5.93;;;;;;;;;;5095713;28;20460;-65
2023/10/17 07:50:57;;;;;;;5.93;5.20;;;;;;;;;;5098951;28;20062;-64
2023/10/17 07:53:32;;;;;;;6.05;5.45;;;;;;;;;;5097568;28;20059;-64
2023/10/17 07:56:05;;;;;;;5.60;5.10;;;;;;;;;;5096227;28;20098;-65
2023/10/17 07:58:41;;;;;;;4.97;4.57;;;;;;;;;;5097807;28;20063;-64
2023/10/17 08:01:14;;;;;;;5.18;4.68;;;;;;;;;;5100548;28;20138;-63
2023/10/17 08:03:54;;;;;;;4.93;4.53;;;;;;;;;;5100813;28;20129;-65
2023/10/17 08:06:28;;;;;;;4.82;4.43;;;;;;;;;;5104754;28;20055;-65
2023/10/17 08:08:59;;;;;;;5.45;4.95;;;;;;;;;;5100004;27;20040;-65
2023/10/17 08:11:30;;;;;;;4.95;4.55;;;;;;;;;;5101894;28;20055;-65
2023/10/17 08:14:05;;;;;;;4.22;3.83;;;;;;;;;;5100815;28;20048;-65
2023/10/17 08:16:34;;;;;;;5.55;5.05;;;;;;;;;;5096681;28;20043;-66
2023/10/17 08:19:14;;;;;;;5.25;4.75;;;;;;;;;;5099420;27;20047;-63
2023/10/17 08:21:49;;;;;;;4.82;4.43;;;;;;;;;;5101273;28;20104;-64
2023/10/17 08:24:26;;;;;;;6.20;5.68;;;;;;;;;;5099007;28;20066;-65
2023/10/17 08:29:42;;;;;;;5.50;5.00;;;;;;;;;;5095501;28;20108;-63
2023/10/17 08:32:29;;;;;;;5.35;4.85;;;;;;;;;;5100017;28;20554;-65
2023/10/17 08:34:58;;;;;;;4.82;4.43;;;;;;;;;;5097767;27;20054;-65
2023/10/17 08:37:28;;;;;;;5.65;4.97;;;;;;;;;;5100674;27;20040;-63
2023/10/17 08:39:57;;;;;;;5.13;4.63;;;;;;;;;;5103232;28;20050;-64
2023/10/17 08:42:31;;;;;;;5.28;4.85;;;;;;;;;;5103690;28;20104;-65
2023/10/17 08:45:04;;;;;;;5.28;4.88;;;;;;;;;;5102085;28;20047;-65
2023/10/17 08:47:32;;;;;;;6.53;5.03;;;;;;;;;;5101829;28;20125;-64
2023/10/17 08:50:04;;;;;;;5.45;4.97;;;;;;;;;;5097125;27;20048;-65
2023/10/17 08:52:36;;;;;;;4.78;4.38;;;;;;;;;;5097878;28;20503;-65
2023/10/17 08:55:04;;;;;;;5.63;5.07;;;;;;;;;;5098129;28;20057;-65
2023/10/17 08:57:33;;;;;;;5.78;5.28;;;;;;;;;;5097025;28;20055;-65
2023/10/17 09:00:24;;;;;;;5.15;4.72;;;;;;;;;;5102467;28;20047;-64
2023/10/17 09:03:00;;;;;;;4.82;4.38;;;;;;;;;;5099617;28;20036;-65
2023/10/17 09:05:29;;;;;;;5.78;5.20;;;;;;;;;;5096163;28;20039;-65
2023/10/17 09:08:00;;;;;;;6.03;5.10;;;;;;;;;;5102161;28;20052;-65
2023/10/17 09:10:36;;;;;;;6.43;5.82;;;;;;;;;;5102931;27;20112;-64
2023/10/17 09:15:56;;;;;;;7.35;6.15;;;;;;;;;;5096711;28;20174;-65
2023/10/17 09:18:27;;;;;;;6.38;5.82;;;;;;;;;;5097857;27;20105;-65
2023/10/17 09:20:56;;;;;;;5.63;5.13;;;;;;;;;;5101629;28;20397;-64
2023/10/17 09:23:26;;;;;;;6.95;5.75;;;;;;;;;;5099365;28;20529;-64
2023/10/17 09:25:55;;;;;;;6.60;6.00;;;;;;;;;;5100416;27;20433;-64
2023/10/17 09:28:25;;;;;;;6.22;5.63;;;;;;;;;;5097006;28;20432;-64
2023/10/17 09:30:58;;;;;;;6.53;5.93;;;;;;;;;;5100676;28;20070;-66
2023/10/17 09:33:31;;;;;;;5.78;5.28;;;;;;;;;;5096549;28;20412;-64
2023/10/17 09:36:03;;;;;;;5.93;5.32;;;;;;;;;;5099601;28;20074;-64
2023/10/17 09:38:32;;;;;;;5.68;5.18;;;;;;;;;;5096729;27;20056;-63
2023/10/17 09:41:01;;;;;;;6.70;6.10;;;;;;;;;;5096319;28;20055;-64
2023/10/17 09:43:45;;;;;;;5.90;5.40;;;;;;;;;;5098906;28;20119;-65
2023/10/17 09:46:16;;;;;;;7.20;6.47;;;;;;;;;;5105125;27;20044;-64
2023/10/17 09:48:46;;;;;;;5.90;5.40;;;;;;;;;;5097794;27;20100;-65
2023/10/17 09:51:20;;;;;;;6.88;6.07;;;;;;;;;;5099671;27;20047;-65
2023/10/17 09:53:53;;;;;;;6.05;5.50;;;;;;;;;;5101532;28;20055;-63
2023/10/17 09:56:26;;;;;;;6.18;5.57;;;;;;;;;;5099583;28;20070;-64
2023/10/17 09:58:57;;;;;;;9.25;6.18;;;;;;;;;;5094945;28;20092;-64
2023/10/17 10:01:29;;;;;;;5.90;5.40;;;;;;;;;;5100361;27;20047;-64
2023/10/17 10:04:01;;;;;;;6.68;6.07;;;;;;;;;;5094536;27;20278;-64
2023/10/17 10:06:31;;;;;;;6.43;5.82;;;;;;;;;;5099223;27;20051;-63
2023/10/17 10:09:16;;;;;;;5.25;4.82;;;;;;;;;;5094518;28;20047;-64
2023/10/17 10:11:58;;;;;;;5.35;4.93;;;;;;;;;;5100507;27;20540;-66
2023/10/17 10:14:39;;;;;;;5.68;5.18;;;;;;;;;;5097152;28;20047;-65
2023/10/17 10:17:09;;;;;;;6.50;5.90;;;;;;;;;;5102454;27;20058;-64
2023/10/17 10:19:56;;;;;;;5.30;4.90;;;;;;;;;;5095624;28;20052;-64
2023/10/17 10:22:25;;;;;;;5.90;5.40;;;;;;;;;;5099045;28;20040;-64
2023/10/17 10:25:05;;;;;;;5.75;5.15;;;;;;;;;;5098374;28;20047;-63
2023/10/17 10:27:34;;;;;;;5.22;4.72;;;;;;;;;;5100759;27;20096;-64
2023/10/17 10:30:21;;;;;;;5.40;4.88;;;;;;;;;;5096747;27;20059;-63
2023/10/17 10:32:51;;;;;;;5.53;5.10;;;;;;;;;;5098832;27;20048;-64
2023/10/17 10:35:20;;;;;;;5.68;5.13;;;;;;;;;;5098740;28;20048;-64
2023/10/17 10:37:52;;;;;;;5.72;5.18;;;;;;;;;;5099119;27;20039;-66
2023/10/17 10:40:24;;;;;;;5.15;4.72;;;;;;;;;;5096463;28;20070;-64
2023/10/17 10:42:53;;;;;;;5.32;4.82;;;;;;;;;;5096962;28;20050;-64
2023/10/17 10:45:31;;;;;;;4.38;4.07;;;;;;;;;;5099597;28;20063;-65
2023/10/17 10:48:04;;;;;;;4.90;4.43;;;;;;;;;;5097009;27;20389;-64
2023/10/17 10:50:34;;;;;;;5.35;4.88;;;;;;;;;;5098052;28;20042;-64
2023/10/17 10:53:04;;;;;;;5.63;4.80;;;;;;;;;;5100626;28;20146;-64
2023/10/17 10:55:33;;;;;;;5.60;5.20;;;;;;;;;;5098133;28;20446;-64
2023/10/17 10:58:03;;;;;;;5.13;4.72;;;;;;;;;;5095470;28;20122;-64
2023/10/17 11:00:32;;;;;;;4.40;4.00;;;;;;;;;;5096534;28;20043;-65
2023/10/17 11:03:02;;;;;;;4.72;4.32;;;;;;;;;;5102210;27;20040;-64
2023/10/17 11:05:31;;;;;;;5.00;4.60;;;;;;;;;;5098743;28;20075;-65
2023/10/17 11:08:02;;;;;;;7.15;5.05;;;;;;;;;;5096072;27;20093;-65
2023/10/17 11:10:31;;;;;;;5.65;5.07;;;;;;;;;;5097258;28;20044;-65
2023/10/17 11:13:01;;;;;;;5.18;4.68;;;;;;;;;;5095538;28;20109;-65
2023/10/17 11:15:32;;;;;;;5.40;5.00;;;;;;;;;;5098505;28;20553;-64
2023/10/17 11:18:06;;;;;;;5.70;5.20;;;;;;;;;;5096923;28;20575;-65
2023/10/17 11:20:35;;;;;;;5.65;4.97;;;;;;;;;;5097584;28;20561;-65
2023/10/17 11:23:04;;;;;;;5.28;4.78;;;;;;;;;;5099403;28;20074;-63
2023/10/17 11:25:34;;;;;;;5.30;4.90;;;;;;;;;;5096235;28;20555;-66
2023/10/17 11:28:06;;;;;;;4.97;4.57;;;;;;;;;;5097709;28;20051;-66
2023/10/17 11:30:40;;;;;;;4.97;4.57;;;;;;;;;;5095683;28;20040;-65
2023/10/17 11:33:11;;;;;;;4.90;4.50;;;;;;;;;;5098091;28;20075;-65
2023/10/17 11:35:47;;;;;;;7.05;5.20;;;;;;;;;;5094322;28;20039;-66
2023/10/17 11:41:15;;;;;;;4.70;4.30;;;;;;;;;;5103706;28;20097;-65
2023/10/17 11:43:53;;;;;;;5.85;5.35;;;;;;;;;;5097773;28;20079;-66
2023/10/17 11:46:30;;;;;;;5.50;5.00;;;;;;;;;;5098621;27;20048;-66
2023/10/17 11:49:26;;;;;;;5.22;4.72;;;;;;;;;;5104293;27;20043;-64
2023/10/17 11:51:59;;;;;;;5.85;5.28;;;;;;;;;;5102441;28;20055;-66
2023/10/17 11:54:28;;;;;;;4.85;4.45;;;;;;;;;;5100791;27;20047;-66
2023/10/17 11:57:13;;;;;;;5.35;4.88;;;;;;;;;;5095146;28;20130;-65
2023/10/17 11:59:59;;;;;;;5.40;4.88;;;;;;;;;;5098004;28;20058;-64
2023/10/17 12:02:29;;;;;;;5.05;4.55;;;;;;;;;;5104537;27;20492;-65
2023/10/17 12:05:00;;;;;;;5.35;4.95;;;;;;;;;;5102397;28;20062;-65
2023/10/17 12:07:30;;;;;;;5.13;4.72;;;;;;;;;;5102798;28;20059;-65
2023/10/17 12:10:04;;;;;;;5.50;5.03;;;;;;;;;;5096797;28;20072;-65
2023/10/17 12:12:34;;;;;;;8.50;4.93;;;;;;;;;;5104606;27;20293;-65
2023/10/17 12:15:04;;;;;;;5.40;4.90;;;;;;;;;;5100392;28;20054;-65
2023/10/17 12:17:33;;;;;;;5.32;4.82;;;;;;;;;;5096728;27;20818;-65
2023/10/17 12:20:09;;;;;;;3.72;3.53;;;;;;;;;;5100047;28;20421;-64
2023/10/17 12:22:37;;;;;;;4.65;4.25;;;;;;;;;;5100322;28;20463;-64
2023/10/17 12:25:08;;;;;;;3.80;3.50;;;;;;;;;;5099448;27;20048;-64
2023/10/17 12:27:39;;;;;;;4.72;4.22;;;;;;;;;;5102173;28;20108;-64
2023/10/17 12:30:09;;;;;;;4.53;4.13;;;;;;;;;;5098883;28;20048;-65
2023/10/17 12:32:38;;;;;;;4.55;4.15;;;;;;;;;;5094746;28;20054;-64
2023/10/17 12:35:12;;;;;;;4.32;3.92;;;;;;;;;;5099631;28;20047;-64
2023/10/17 12:37:44;;;;;;;4.53;4.13;;;;;;;;;;5096076;28;20052;-65
2023/10/17 12:40:18;;;;;;;4.47;4.00;;;;;;;;;;5098670;28;20055;-65
2023/10/17 12:42:47;;;;;;;4.07;3.78;;;;;;;;;;5102372;27;20059;-66
2023/10/17 12:45:17;;;;;;;4.25;3.95;;;;;;;;;;5098908;27;20047;-65
2023/10/17 12:47:46;;;;;;;4.40;4.00;;;;;;;;;;5099550;27;20508;-65
2023/10/17 12:50:18;;;;;;;4.30;3.90;;;;;;;;;;5101586;28;20373;-64
2023/10/17 12:52:46;;;;;;;4.30;3.90;;;;;;;;;;5093846;28;20080;-64
2023/10/17 12:55:15;;;;;;;3.90;3.60;;;;;;;;;;5100702;27;20044;-64
2023/10/17 12:57:43;;;;;;;12.40;4.10;;;;;;;;;;5098890;28;20101;-65
2023/10/17 13:00:14;;;;;;;4.30;4.00;;;;;;;;;;5099395;28;20049;-65
2023/10/17 13:02:43;;;;;;;4.22;3.92;;;;;;;;;;5094844;28;20044;-65
2023/10/17 13:05:12;;;;;;;4.15;3.85;;;;;;;;;;5101054;27;20060;-64
2023/10/17 13:07:43;;;;;;;4.00;3.70;;;;;;;;;;5102578;28;20519;-65
2023/10/17 13:10:12;;;;;;;4.63;4.10;;;;;;;;;;5095956;28;20124;-65
2023/10/17 13:12:40;;;;;;;3.97;3.65;;;;;;;;;;5101295;28;20062;-65
2023/10/17 13:15:14;;;;;;;4.30;3.90;;;;;;;;;;5099329;28;20660;-66
2023/10/17 13:17:44;;;;;;;4.05;3.75;;;;;;;;;;5100054;27;20560;-65
2023/10/17 13:20:16;;;;;;;4.40;4.00;;;;;;;;;;5105461;27;20143;-65
2023/10/17 13:23:07;;;;;;;4.32;3.65;;;;;;;;;;5101788;28;20055;-65
2023/10/17 13:25:38;;;;;;;3.75;3.45;;;;;;;;;;5100800;28;20736;-65
2023/10/17 13:28:07;;;;;;;4.40;3.45;;;;;;;;;;5100154;28;20056;-65
2023/10/17 13:30:36;;;;;;;4.35;3.95;;;;;;;;;;5100175;28;20044;-66
2023/10/17 13:33:04;;;;;;;3.88;3.58;;;;;;;;;;5102662;27;20050;-65
2023/10/17 13:35:37;;;;;;;3.53;3.22;;;;;;;;;;5098722;28;20121;-65
2023/10/17 13:38:07;;;;;;;3.55;3.25;;;;;;;;;;5099278;27;20058;-66
2023/10/17 13:40:35;;;;;;;6.30;3.60;;;;;;;;;;5095858;28;20047;-65
2023/10/17 13:43:04;;;;;;;3.85;3.55;;;;;;;;;;5102185;27;20079;-66
2023/10/17 13:45:37;;;;;;;3.60;3.30;;;;;;;;;;5101994;27;20366;-65
2023/10/17 13:48:06;;;;;;;3.70;3.40;;;;;;;;;;5104295;27;20051;-66
2023/10/17 13:50:35;;;;;;;4.15;3.85;;;;;;;;;;5104466;28;20051;-65
2023/10/17 13:53:16;;;;;;;4.20;3.90;;;;;;;;;;5100627;28;20044;-64
2023/10/17 13:55:45;;;;;;;4.78;3.72;;;;;;;;;;5097460;27;20052;-64
2023/10/17 13:58:15;;;;;;;3.75;3.13;;;;;;;;;;5096307;27;20052;-63
2023/10/17 14:00:44;;;;;;;6.68;3.30;;;;;;;;;;5100672;28;20047;-64
2023/10/17 14:03:13;;;;;;;3.50;3.20;;;;;;;;;;5093683;27;20101;-64
2023/10/17 14:05:47;;;;;;;3.83;3.53;;;;;;;;;;5099831;27;20053;-63
2023/10/17 14:08:17;;;;;;;3.38;3.17;;;;;;;;;;5098668;27;20055;-63
2023/10/17 14:10:48;;;;;;;3.35;3.05;;;;;;;;;;5100199;28;20512;-64
2023/10/17 14:13:17;;;;;;;4.10;3.20;;;;;;;;;;5094172;28;20268;-64
2023/10/17 14:15:47;;;;;;;3.50;3.30;;;;;;;;;;5096835;27;20044;-65
2023/10/17 14:18:18;;;;;;;4.25;3.17;;;;;;;;;;5100829;27;20126;-65
2023/10/17 14:21:16;;;;;;;4.38;3.53;;;;;;;;;;5097582;28;20042;-64
2023/10/17 14:23:57;;;;;;;3.42;3.22;;;;;;;;;;5098124;28;20052;-64
2023/10/17 14:26:28;;;;;;;3.78;3.47;;;;;;;;;;5102268;28;20389;-64
2023/10/17 14:28:56;;;;;;;3.70;3.45;;;;;;;;;;5097941;28;20059;-65
2023/10/17 14:31:25;;;;;;;3.22;3.03;;;;;;;;;;5099886;27;20043;-65
2023/10/17 14:33:55;;;;;;;3.08;2.88;;;;;;;;;;5098045;27;20104;-66
2023/10/17 14:36:23;;;;;;;3.22;3.03;;;;;;;;;;5095461;27;20264;-65
2023/10/17 14:38:53;;;;;;;3.90;3.60;;;;;;;;;;5095226;28;20044;-65
2023/10/17 14:41:23;;;;;;;3.88;3.58;;;;;;;;;;5101456;28;20055;-66
2023/10/17 14:43:51;;;;;;;3.85;3.55;;;;;;;;;;5095907;28;20064;-66
2023/10/17 14:46:20;;;;;;;3.80;3.50;;;;;;;;;;5095357;28;20048;-66
2023/10/17 14:48:49;;;;;;;3.20;3.00;;;;;;;;;;5093022;28;20360;-65
2023/10/17 14:51:19;;;;;;;3.83;3.55;;;;;;;;;;5095063;28;20397;-65
2023/10/17 14:53:47;;;;;;;3.95;3.65;;;;;;;;;;5099247;28;20493;-64
2023/10/17 14:56:21;;;;;;;3.67;3.38;;;;;;;;;;5100482;28;20047;-65
2023/10/17 14:58:50;;;;;;;3.33;3.13;;;;;;;;;;5101954;28;20058;-65
2023/10/17 15:01:19;;;;;;;3.08;2.88;;;;;;;;;;5092136;28;20058;-66
2023/10/17 15:03:48;;;;;;;2.83;2.67;;;;;;;;;;5096933;28;20396;-66
2023/10/17 15:06:17;;;;;;;3.55;3.10;;;;;;;;;;5097167;28;20509;-66
2023/10/17 15:08:45;;;;;;;3.10;2.90;;;;;;;;;;5093996;28;20060;-64
2023/10/17 15:11:14;;;;;;;3.45;3.15;;;;;;;;;;5100049;27;20052;-63
2023/10/17 15:13:45;;;;;;;3.35;3.15;;;;;;;;;;5091969;28;20586;-64
2023/10/17 15:16:14;;;;;;;3.45;3.22;;;;;;;;;;5097985;28;20051;-64
2023/10/17 15:18:44;;;;;;;3.38;3.17;;;;;;;;;;5094964;28;20056;-64
2023/10/17 15:21:13;;;;;;;3.60;3.40;;;;;;;;;;5097275;28;20129;-65
2023/10/17 15:23:42;;;;;;;3.33;3.13;;;;;;;;;;5092879;28;20055;-65
2023/10/17 15:26:11;;;;;;;3.30;3.10;;;;;;;;;;5096422;28;20047;-65
2023/10/17 15:28:41;;;;;;;4.05;3.75;;;;;;;;;;5097331;28;20043;-64
2023/10/17 15:31:11;;;;;;;3.50;3.20;;;;;;;;;;5097100;28;20043;-65
2023/10/17 15:33:40;;;;;;;4.13;3.83;;;;;;;;;;5095449;28;20138;-64
2023/10/17 15:36:11;;;;;;;4.07;3.67;;;;;;;;;;5097095;28;20052;-65
2023/10/17 15:38:40;;;;;;;3.42;3.10;;;;;;;;;;5094125;28;20054;-64
2023/10/17 15:41:09;;;;;;;3.40;3.20;;;;;;;;;;5090841;28;20074;-65
2023/10/17 15:43:37;;;;;;;5.07;3.75;;;;;;;;;;5097000;28;20047;-65
2023/10/17 15:46:06;;;;;;;3.35;3.15;;;;;;;;;;5096272;28;20056;-64
2023/10/17 15:48:36;;;;;;;3.72;3.42;;;;;;;;;;5098662;28;20147;-65
2023/10/17 15:51:04;;;;;;;3.75;3.55;;;;;;;;;;5097159;28;20353;-64
2023/10/17 15:53:33;;;;;;;3.72;3.40;;;;;;;;;;5094617;28;20143;-66
2023/10/17 15:56:02;;;;;;;3.75;3.47;;;;;;;;;;5091914;28;20564;-66
2023/10/17 15:58:32;;;;;;;3.38;3.17;;;;;;;;;;5097993;28;20048;-65
2023/10/17 16:01:01;;;;;;;3.53;3.20;;;;;;;;;;5097373;28;20059;-65
2023/10/17 16:03:30;;;;;;;3.65;3.38;;;;;;;;;;5096295;28;20066;-65
2023/10/17 16:06:00;;;;;;;3.60;3.30;;;;;;;;;;5095253;28;20116;-65
2023/10/17 16:08:29;;;;;;;5.43;3.97;;;;;;;;;;5097598;28;20589;-66
2023/10/17 16:10:57;;;;;;;3.97;3.67;;;;;;;;;;5099377;28;20058;-65
2023/10/17 16:13:26;;;;;;;3.50;3.20;;;;;;;;;;5097843;28;20546;-66
2023/10/17 16:15:58;;;;;;;3.42;3.13;;;;;;;;;;5096170;28;20097;-66
2023/10/17 16:18:27;;;;;;;3.30;3.10;;;;;;;;;;5094315;28;20516;-65
2023/10/17 16:20:56;;;;;;;3.90;3.60;;;;;;;;;;5097338;28;20054;-65
2023/10/17 16:23:25;;;;;;;3.83;3.53;;;;;;;;;;5094700;28;20043;-66
2023/10/17 16:25:58;;;;;;;3.72;3.42;;;;;;;;;;5100162;28;20458;-66
2023/10/17 16:28:28;;;;;;;4.18;3.75;;;;;;;;;;5099928;27;20066;-66
2023/10/17 16:30:56;;;;;;;4.20;3.90;;;;;;;;;;5101964;27;20059;-66
2023/10/17 16:33:26;;;;;;;4.10;3.80;;;;;;;;;;5097366;27;20043;-66
2023/10/17 16:35:59;;;;;;;4.47;4.05;;;;;;;;;;5098100;27;20180;-66
2023/10/17 16:38:30;;;;;;;4.18;3.88;;;;;;;;;;5098575;27;20055;-65
2023/10/17 16:40:59;;;;;;;3.78;3.47;;;;;;;;;;5096983;28;20052;-64
2023/10/17 16:43:28;;;;;;;4.10;3.80;;;;;;;;;;5102096;27;20055;-65
2023/10/17 16:45:59;;;;;;;3.80;3.50;;;;;;;;;;5098295;27;20051;-66